Time,TemperatureF,DewpointF,PressureIn,WindDirection,WindDirectionDegrees,WindSpeedMPH,WindSpeedGustMPH,Humidity,HourlyPrecipIn,Conditions,Clouds,dailyrainin,SolarRadiationWatts/m^2,SoftwareType,DateUTC
2013-10-02 00:13:00,71.0,28.0,29.77,East,101,0.0,2.0,20,0.00,,,0.00,0,weatherlink.com 1.10,2013-10-02 06:13:00,
2013-10-02 00:28:00,71.6,28.0,29.77,NW,314,1.0,4.0,20,0.00,,,0.00,0,weatherlink.com 1.10,2013-10-02 06:28:00,
2013-10-02 00:43:00,65.6,31.0,29.77,ENE,63,3.0,3.0,27,0.00,,,0.00,0,weatherlink.com 1.10,2013-10-02 06:43:00,
2013-10-02 00:58:00,63.1,29.0,29.77,East,99,6.0,7.0,28,0.00,,,0.00,0,weatherlink.com 1.10,2013-10-02 06:58:00,
2013-10-02 01:13:00,65.8,29.0,29.77,East,98,0.0,5.0,25,0.00,,,0.00,0,weatherlink.com 1.10,2013-10-02 07:13:00,
2013-10-02 01:28:00,70.1,28.0,29.77,WNW,290,1.0,8.0,21,0.00,,,0.00,0,weatherlink.com 1.10,2013-10-02 07:28:00,
2013-10-02 01:44:00,67.5,28.0,29.77,SW,233,0.0,5.0,23,0.00,,,0.00,0,weatherlink.com 1.10,2013-10-02 07:44:00,
2013-10-02 01:59:00,65.9,28.0,29.77,SW,218,2.0,6.0,24,0.00,,,0.00,0,weatherlink.com 1.10,2013-10-02 07:59:00,
2013-10-02 02:14:00,65.2,28.0,29.77,SW,218,0.0,1.0,25,0.00,,,0.00,0,weatherlink.com 1.10,2013-10-02 08:14:00,
2013-10-02 02:29:00,64.9,29.0,29.77,SW,218,0.0,0.0,26,0.00,,,0.00,0,weatherlink.com 1.10,2013-10-02 08:29:00,
2013-10-02 02:44:00,63.0,29.0,29.77,SSW,213,4.0,4.0,28,0.00,,,0.00,0,weatherlink.com 1.10,2013-10-02 08:44:00,
2013-10-02 02:59:00,62.7,28.0,29.77,SSW,213,0.0,1.0,27,0.00,,,0.00,0,weatherlink.com 1.10,2013-10-02 08:59:00,
2013-10-02 03:14:00,63.4,30.0,29.76,SSW,207,1.0,7.0,28,0.00,,,0.00,0,weatherlink.com 1.10,2013-10-02 09:14:00,
2013-10-02 03:29:00,62.5,30.0,29.77,SSW,200,4.0,5.0,29,0.00,,,0.00,0,weatherlink.com 1.10,2013-10-02 09:29:00,
2013-10-02 03:44:00,62.8,29.0,29.77,South,182,1.0,5.0,28,0.00,,,0.00,0,weatherlink.com 1.10,2013-10-02 09:44:00,
2013-10-02 03:59:00,62.1,30.0,29.77,South,182,3.0,4.0,30,0.00,,,0.00,0,weatherlink.com 1.10,2013-10-02 09:59:00,
2013-10-02 04:14:00,62.0,30.0,29.77,South,182,2.0,2.0,30,0.00,,,0.00,0,weatherlink.com 1.10,2013-10-02 10:14:00,
2013-10-02 04:29:00,61.4,30.0,29.77,South,182,1.0,1.0,31,0.00,,,0.00,0,weatherlink.com 1.10,2013-10-02 10:29:00,
2013-10-02 04:44:00,60.2,30.0,29.77,South,182,1.0,2.0,32,0.00,,,0.00,0,weatherlink.com 1.10,2013-10-02 10:44:00,
2013-10-02 04:59:00,59.1,31.0,29.77,South,182,0.0,1.0,34,0.00,,,0.00,0,weatherlink.com 1.10,2013-10-02 10:59:00,
2013-10-02 05:14:00,59.0,31.0,29.78,South,182,0.0,1.0,35,0.00,,,0.00,0,weatherlink.com 1.10,2013-10-02 11:14:00,
2013-10-02 05:29:00,58.0,31.0,29.78,South,182,1.0,2.0,36,0.00,,,0.00,0,weatherlink.com 1.10,2013-10-02 11:29:00,
2013-10-02 05:44:00,58.7,31.0,29.79,South,181,2.0,4.0,35,0.00,,,0.00,0,weatherlink.com 1.10,2013-10-02 11:44:00,
2013-10-02 05:59:00,60.3,31.0,29.79,South,181,2.0,4.0,33,0.00,,,0.00,0,weatherlink.com 1.10,2013-10-02 11:59:00,
2013-10-02 06:14:00,60.3,30.0,29.79,SE,135,4.0,6.0,32,0.00,,,0.00,0,weatherlink.com 1.10,2013-10-02 12:14:00,
2013-10-02 06:29:00,62.4,30.0,29.79,SE,135,1.0,4.0,29,0.00,,,0.00,0,weatherlink.com 1.10,2013-10-02 12:29:00,
2013-10-02 06:44:00,61.6,31.0,29.79,SE,135,2.0,3.0,31,0.00,,,0.00,0,weatherlink.com 1.10,2013-10-02 12:44:00,
2013-10-02 06:59:00,59.1,31.0,29.79,SE,135,4.0,5.0,34,0.00,,,0.00,0,weatherlink.com 1.10,2013-10-02 12:59:00,
2013-10-02 07:14:00,60.0,31.0,29.79,SE,130,5.0,6.0,33,0.00,,,0.00,11,weatherlink.com 1.10,2013-10-02 13:14:00,
2013-10-02 07:29:00,59.9,31.0,29.79,ESE,108,5.0,8.0,34,0.00,,,0.00,16,weatherlink.com 1.10,2013-10-02 13:29:00,
2013-10-02 07:44:00,61.2,32.0,29.79,East,88,5.0,6.0,33,0.00,,,0.00,63,weatherlink.com 1.10,2013-10-02 13:44:00,
2013-10-02 07:59:00,65.6,35.0,29.79,East,83,2.0,6.0,32,0.00,,,0.00,121,weatherlink.com 1.10,2013-10-02 13:59:00,
2013-10-02 08:14:00,70.9,35.0,29.80,ENE,59,5.0,6.0,27,0.00,,,0.00,167,weatherlink.com 1.10,2013-10-02 14:14:00,
2013-10-02 08:29:00,73.9,35.0,29.80,NE,42,2.0,6.0,24,0.00,,,0.00,234,weatherlink.com 1.10,2013-10-02 14:29:00,
2013-10-02 08:45:00,71.0,38.0,29.80,West,276,5.0,5.0,30,0.00,,,0.00,288,weatherlink.com 1.10,2013-10-02 14:45:00,
2013-10-02 09:00:00,67.7,37.0,29.81,West,261,1.0,6.0,32,0.00,,,0.00,320,weatherlink.com 1.10,2013-10-02 15:00:00,
2013-10-02 09:15:00,68.3,36.0,29.81,WSW,248,4.0,6.0,30,0.00,,,0.00,362,weatherlink.com 1.10,2013-10-02 15:15:00,
2013-10-02 09:30:00,67.9,36.0,29.82,WSW,248,5.0,6.0,31,0.00,,,0.00,417,weatherlink.com 1.10,2013-10-02 15:30:00,
2013-10-02 09:45:00,67.1,35.0,29.82,WSW,240,7.0,7.0,31,0.00,,,0.00,482,weatherlink.com 1.10,2013-10-02 15:45:00,
2013-10-02 10:00:00,68.5,34.0,29.83,SW,228,2.0,6.0,28,0.00,,,0.00,540,weatherlink.com 1.10,2013-10-02 16:00:00,
2013-10-02 10:15:00,68.8,35.0,29.84,SW,231,6.0,8.0,29,0.00,,,0.00,587,weatherlink.com 1.10,2013-10-02 16:15:00,
2013-10-02 10:30:00,69.0,34.0,29.84,SW,231,1.0,5.0,27,0.00,,,0.00,622,weatherlink.com 1.10,2013-10-02 16:30:00,
2013-10-02 10:45:00,70.0,34.0,29.84,SW,222,0.0,4.0,27,0.00,,,0.00,661,weatherlink.com 1.10,2013-10-02 16:45:00,
2013-10-02 11:00:00,72.3,35.0,29.84,SW,222,0.0,2.0,26,0.00,,,0.00,694,weatherlink.com 1.10,2013-10-02 17:00:00,
2013-10-02 11:15:00,74.7,37.0,29.83,SW,221,1.0,2.0,25,0.00,,,0.00,724,weatherlink.com 1.10,2013-10-02 17:15:00,
2013-10-02 11:30:00,76.7,37.0,29.82,SW,225,1.0,5.0,24,0.00,,,0.00,749,weatherlink.com 1.10,2013-10-02 17:30:00,
2013-10-02 11:45:00,77.5,36.0,29.82,SW,229,1.0,5.0,22,0.00,,,0.00,770,weatherlink.com 1.10,2013-10-02 17:45:00,
2013-10-02 12:00:00,78.2,35.0,29.82,WNW,301,4.0,7.0,21,0.00,,,0.00,788,weatherlink.com 1.10,2013-10-02 18:00:00,
2013-10-02 12:16:00,79.0,35.0,29.81,NW,320,1.0,8.0,20,0.00,,,0.00,802,weatherlink.com 1.10,2013-10-02 18:16:00,
2013-10-02 12:31:00,79.7,35.0,29.81,WNW,286,4.0,8.0,20,0.00,,,0.00,810,weatherlink.com 1.10,2013-10-02 18:31:00,
2013-10-02 12:46:00,80.2,36.0,29.80,WNW,293,7.0,14.0,20,0.00,,,0.00,816,weatherlink.com 1.10,2013-10-02 18:46:00,
2013-10-02 13:01:00,80.4,34.0,29.79,NW,326,3.0,10.0,19,0.00,,,0.00,816,weatherlink.com 1.10,2013-10-02 19:01:00,
2013-10-02 13:16:00,81.0,32.0,29.79,WNW,300,2.0,10.0,17,0.00,,,0.00,810,weatherlink.com 1.10,2013-10-02 19:16:00,
2013-10-02 13:31:00,80.6,33.0,29.78,West,259,2.0,9.0,18,0.00,,,0.00,809,weatherlink.com 1.10,2013-10-02 19:31:00,
2013-10-02 13:46:00,81.2,35.0,29.77,WNW,286,8.0,13.0,19,0.00,,,0.00,793,weatherlink.com 1.10,2013-10-02 19:46:00,
2013-10-02 14:01:00,81.7,37.0,29.76,West,264,10.0,10.0,20,0.00,,,0.00,779,weatherlink.com 1.10,2013-10-02 20:01:00,
2013-10-02 14:16:00,82.2,36.0,29.75,WSW,256,5.0,10.0,19,0.00,,,0.00,761,weatherlink.com 1.10,2013-10-02 20:16:00,
2013-10-02 14:31:00,82.4,36.0,29.74,South,190,3.0,8.0,19,0.00,,,0.00,738,weatherlink.com 1.10,2013-10-02 20:31:00,
2013-10-02 14:46:00,83.0,37.0,29.73,NW,320,5.0,15.0,19,0.00,,,0.00,712,weatherlink.com 1.10,2013-10-02 20:46:00,
2013-10-02 15:01:00,83.0,37.0,29.73,SW,216,7.0,13.0,19,0.00,,,0.00,680,weatherlink.com 1.10,2013-10-02 21:01:00,
2013-10-02 15:16:00,83.4,37.0,29.72,WSW,248,5.0,15.0,19,0.00,,,0.00,647,weatherlink.com 1.10,2013-10-02 21:16:00,
2013-10-02 15:31:00,83.7,36.0,29.71,West,264,8.0,13.0,18,0.00,,,0.00,610,weatherlink.com 1.10,2013-10-02 21:31:00,
2013-10-02 15:46:00,83.4,36.0,29.71,NW,304,1.0,12.0,18,0.00,,,0.00,570,weatherlink.com 1.10,2013-10-02 21:46:00,
2013-10-02 16:01:00,84.0,35.0,29.71,WNW,292,2.0,12.0,17,0.00,,,0.00,529,weatherlink.com 1.10,2013-10-02 22:01:00,
2013-10-02 16:16:00,83.6,36.0,29.70,SW,231,7.0,16.0,18,0.00,,,0.00,482,weatherlink.com 1.10,2013-10-02 22:16:00,
2013-10-02 16:31:00,83.8,36.0,29.70,WSW,250,8.0,15.0,18,0.00,,,0.00,432,weatherlink.com 1.10,2013-10-02 22:31:00,
2013-10-02 16:46:00,83.6,36.0,29.70,WSW,250,3.0,17.0,18,0.00,,,0.00,380,weatherlink.com 1.10,2013-10-02 22:46:00,
2013-10-02 17:01:00,83.4,36.0,29.70,WSW,244,11.0,18.0,18,0.00,,,0.00,332,weatherlink.com 1.10,2013-10-02 23:01:00,
2013-10-02 17:16:00,83.2,35.0,29.70,West,265,9.0,15.0,18,0.00,,,0.00,278,weatherlink.com 1.10,2013-10-02 23:16:00,
2013-10-02 17:31:00,82.8,36.0,29.70,WSW,244,11.0,15.0,19,0.00,,,0.00,223,weatherlink.com 1.10,2013-10-02 23:31:00,
2013-10-02 17:46:00,82.5,36.0,29.70,West,270,3.0,12.0,19,0.00,,,0.00,160,weatherlink.com 1.10,2013-10-02 23:46:00,
2013-10-02 18:01:00,82.2,36.0,29.70,West,273,7.0,9.0,19,0.00,,,0.00,102,weatherlink.com 1.10,2013-10-03 00:01:00,
2013-10-02 18:16:00,81.3,35.0,29.71,WNW,283,4.0,11.0,19,0.00,,,0.00,49,weatherlink.com 1.10,2013-10-03 00:16:00,
2013-10-02 18:31:00,80.3,36.0,29.71,WNW,294,2.0,7.0,20,0.00,,,0.00,14,weatherlink.com 1.10,2013-10-03 00:31:00,
2013-10-02 18:46:00,78.4,35.0,29.71,NW,309,1.0,6.0,21,0.00,,,0.00,7,weatherlink.com 1.10,2013-10-03 00:46:00,
2013-10-02 19:01:00,76.0,36.0,29.71,NW,305,1.0,5.0,23,0.00,,,0.00,0,weatherlink.com 1.10,2013-10-03 01:01:00,
2013-10-02 19:16:00,73.4,35.0,29.71,NW,305,1.0,2.0,25,0.00,,,0.00,0,weatherlink.com 1.10,2013-10-03 01:16:00,
2013-10-02 19:31:00,72.7,36.0,29.72,NW,306,1.0,2.0,26,0.00,,,0.00,0,weatherlink.com 1.10,2013-10-03 01:31:00,
2013-10-02 19:46:00,71.7,36.0,29.72,NNW,334,3.0,5.0,27,0.00,,,0.00,0,weatherlink.com 1.10,2013-10-03 01:46:00,
2013-10-02 20:01:00,71.2,35.0,29.72,North,355,4.0,5.0,27,0.00,,,0.00,0,weatherlink.com 1.10,2013-10-03 02:01:00,
2013-10-02 20:16:00,70.6,35.0,29.72,North,355,4.0,5.0,27,0.00,,,0.00,0,weatherlink.com 1.10,2013-10-03 02:16:00,
2013-10-02 20:31:00,71.0,34.0,29.73,NNE,15,4.0,5.0,26,0.00,,,0.00,0,weatherlink.com 1.10,2013-10-03 02:31:00,
2013-10-02 20:46:00,70.7,35.0,29.72,NNE,19,2.0,4.0,27,0.00,,,0.00,0,weatherlink.com 1.10,2013-10-03 02:46:00,
2013-10-02 21:01:00,68.1,35.0,29.73,NNE,22,1.0,4.0,30,0.00,,,0.00,0,weatherlink.com 1.10,2013-10-03 03:01:00,
2013-10-02 21:16:00,67.8,35.0,29.73,NNE,22,2.0,3.0,30,0.00,,,0.00,0,weatherlink.com 1.10,2013-10-03 03:16:00,
2013-10-02 21:31:00,68.2,35.0,29.74,NNE,26,2.0,3.0,29,0.00,,,0.00,0,weatherlink.com 1.10,2013-10-03 03:31:00,
2013-10-02 21:46:00,67.0,34.0,29.74,NNE,29,2.0,4.0,30,0.00,,,0.00,0,weatherlink.com 1.10,2013-10-03 03:46:00,
2013-10-02 22:01:00,67.1,35.0,29.74,NNE,29,2.0,3.0,30,0.00,,,0.00,0,weatherlink.com 1.10,2013-10-03 04:01:00,
2013-10-02 22:16:00,65.2,34.0,29.74,NE,34,3.0,4.0,32,0.00,,,0.00,0,weatherlink.com 1.10,2013-10-03 04:16:00,
2013-10-02 22:31:00,64.8,34.0,29.75,NE,41,2.0,5.0,32,0.00,,,0.00,0,weatherlink.com 1.10,2013-10-03 04:31:00,
2013-10-02 22:46:00,65.4,35.0,29.75,NE,41,2.0,2.0,32,0.00,,,0.00,0,weatherlink.com 1.10,2013-10-03 04:46:00,
2013-10-02 23:01:00,65.2,34.0,29.75,NE,44,2.0,4.0,32,0.00,,,0.00,0,weatherlink.com 1.10,2013-10-03 05:01:00,
2013-10-02 23:16:00,65.6,35.0,29.74,NE,44,4.0,5.0,32,0.00,,,0.00,0,weatherlink.com 1.10,2013-10-03 05:16:00,
2013-10-02 23:31:00,64.7,35.0,29.74,NE,54,3.0,6.0,33,0.00,,,0.00,0,weatherlink.com 1.10,2013-10-03 05:31:00,
2013-10-02 23:46:00,65.1,35.0,29.74,NE,54,5.0,6.0,33,0.00,,,0.00,0,weatherlink.com 1.10,2013-10-03 05:46:00,